sensor_id;sensor_type;location;lat;lon;timestamp;temperature;humidity
19522;DHT22;9905;52.126;5.596;2022-10-03T00:00:11;9.70;99.90
19522;DHT22;9905;52.126;5.596;2022-10-03T00:03:07;9.70;99.90
19522;DHT22;9905;52.126;5.596;2022-10-03T00:05:49;9.70;99.90
19522;DHT22;9905;52.126;5.596;2022-10-03T00:08:30;9.70;99.90
19522;DHT22;9905;52.126;5.596;2022-10-03T00:11:03;9.60;99.90
19522;DHT22;9905;52.126;5.596;2022-10-03T00:13:42;9.60;99.90
19522;DHT22;9905;52.126;5.596;2022-10-03T00:16:15;9.60;99.90
19522;DHT22;9905;52.126;5.596;2022-10-03T00:18:55;9.60;99.90
19522;DHT22;9905;52.126;5.596;2022-10-03T00:21:37;9.60;99.90
19522;DHT22;9905;52.126;5.596;2022-10-03T00:24:18;9.50;99.90
19522;DHT22;9905;52.126;5.596;2022-10-03T00:26:51;9.50;99.90
19522;DHT22;9905;52.126;5.596;2022-10-03T00:29:33;9.50;99.90
19522;DHT22;9905;52.126;5.596;2022-10-03T00:32:10;9.50;99.90
19522;DHT22;9905;52.126;5.596;2022-10-03T00:34:52;9.40;99.90
19522;DHT22;9905;52.126;5.596;2022-10-03T00:37:28;9.40;99.90
19522;DHT22;9905;52.126;5.596;2022-10-03T00:43:14;9.40;99.90
19522;DHT22;9905;52.126;5.596;2022-10-03T00:46:05;9.30;99.90
19522;DHT22;9905;52.126;5.596;2022-10-03T00:49:11;9.30;99.90
19522;DHT22;9905;52.126;5.596;2022-10-03T00:51:49;9.30;99.90
19522;DHT22;9905;52.126;5.596;2022-10-03T00:54:34;9.30;99.90
19522;DHT22;9905;52.126;5.596;2022-10-03T00:57:19;9.20;99.90
19522;DHT22;9905;52.126;5.596;2022-10-03T01:00:13;9.20;99.90
19522;DHT22;9905;52.126;5.596;2022-10-03T01:02:48;9.20;99.90
19522;DHT22;9905;52.126;5.596;2022-10-03T01:05:30;9.20;99.90
19522;DHT22;9905;52.126;5.596;2022-10-03T01:08:28;9.20;99.90
19522;DHT22;9905;52.126;5.596;2022-10-03T01:11:05;9.20;99.90
19522;DHT22;9905;52.126;5.596;2022-10-03T01:13:43;9.20;99.90
19522;DHT22;9905;52.126;5.596;2022-10-03T01:16:16;9.20;99.90
19522;DHT22;9905;52.126;5.596;2022-10-03T01:18:54;9.20;99.90
19522;DHT22;9905;52.126;5.596;2022-10-03T01:21:32;9.20;99.90
19522;DHT22;9905;52.126;5.596;2022-10-03T01:26:58;9.30;99.90
19522;DHT22;9905;52.126;5.596;2022-10-03T01:29:40;9.30;99.90
19522;DHT22;9905;52.126;5.596;2022-10-03T01:32:32;9.20;99.90
19522;DHT22;9905;52.126;5.596;2022-10-03T01:35:09;9.30;99.90
19522;DHT22;9905;52.126;5.596;2022-10-03T01:37:45;9.20;99.90
19522;DHT22;9905;52.126;5.596;2022-10-03T01:40:21;9.20;99.90
19522;DHT22;9905;52.126;5.596;2022-10-03T01:43:00;9.10;99.90
19522;DHT22;9905;52.126;5.596;2022-10-03T01:45:37;9.20;99.90
19522;DHT22;9905;52.126;5.596;2022-10-03T01:48:11;9.10;99.90
19522;DHT22;9905;52.126;5.596;2022-10-03T01:50:49;9.10;99.90
19522;DHT22;9905;52.126;5.596;2022-10-03T01:53:24;9.10;99.90
19522;DHT22;9905;52.126;5.596;2022-10-03T01:55:57;9.10;99.90
19522;DHT22;9905;52.126;5.596;2022-10-03T01:58:29;9.10;99.90
19522;DHT22;9905;52.126;5.596;2022-10-03T02:01:05;9.00;99.90
19522;DHT22;9905;52.126;5.596;2022-10-03T02:03:36;9.00;99.90
19522;DHT22;9905;52.126;5.596;2022-10-03T02:06:16;9.00;99.90
19522;DHT22;9905;52.126;5.596;2022-10-03T02:08:51;9.00;99.90
19522;DHT22;9905;52.126;5.596;2022-10-03T02:11:28;8.90;99.90
19522;DHT22;9905;52.126;5.596;2022-10-03T02:14:00;8.90;99.90
19522;DHT22;9905;52.126;5.596;2022-10-03T02:16:38;8.90;99.90
19522;DHT22;9905;52.126;5.596;2022-10-03T02:19:12;8.90;99.90
19522;DHT22;9905;52.126;5.596;2022-10-03T02:21:48;8.90;99.90
19522;DHT22;9905;52.126;5.596;2022-10-03T02:24:37;9.00;99.90
19522;DHT22;9905;52.126;5.596;2022-10-03T02:27:19;8.90;99.90
19522;DHT22;9905;52.126;5.596;2022-10-03T02:30:16;8.90;99.90
19522;DHT22;9905;52.126;5.596;2022-10-03T02:33:22;8.80;99.90
19522;DHT22;9905;52.126;5.596;2022-10-03T02:39:25;8.80;99.90
19522;DHT22;9905;52.126;5.596;2022-10-03T02:42:22;8.80;99.90
19522;DHT22;9905;52.126;5.596;2022-10-03T02:48:34;8.80;99.90
19522;DHT22;9905;52.126;5.596;2022-10-03T02:51:34;8.70;99.90
19522;DHT22;9905;52.126;5.596;2022-10-03T03:00:17;8.70;99.90
19522;DHT22;9905;52.126;5.596;2022-10-03T03:03:18;8.70;99.90
19522;DHT22;9905;52.126;5.596;2022-10-03T03:06:18;8.70;99.90
19522;DHT22;9905;52.126;5.596;2022-10-03T03:09:08;8.60;99.90
19522;DHT22;9905;52.126;5.596;2022-10-03T03:12:03;8.50;99.90
19522;DHT22;9905;52.126;5.596;2022-10-03T03:17:37;8.40;99.90
19522;DHT22;9905;52.126;5.596;2022-10-03T03:23:27;8.40;99.90
19522;DHT22;9905;52.126;5.596;2022-10-03T03:28:56;8.30;99.90
19522;DHT22;9905;52.126;5.596;2022-10-03T03:31:30;8.30;99.90
19522;DHT22;9905;52.126;5.596;2022-10-03T03:34:05;8.30;99.90
19522;DHT22;9905;52.126;5.596;2022-10-03T03:36:37;8.20;99.90
19522;DHT22;9905;52.126;5.596;2022-10-03T03:39:28;8.20;99.90
19522;DHT22;9905;52.126;5.596;2022-10-03T03:42:11;8.20;99.90
19522;DHT22;9905;52.126;5.596;2022-10-03T03:44:56;8.10;99.90
19522;DHT22;9905;52.126;5.596;2022-10-03T03:47:35;8.10;99.90
19522;DHT22;9905;52.126;5.596;2022-10-03T03:50:27;8.10;99.90
19522;DHT22;9905;52.126;5.596;2022-10-03T03:53:12;8.10;99.90
19522;DHT22;9905;52.126;5.596;2022-10-03T03:55:53;8.10;99.90
19522;DHT22;9905;52.126;5.596;2022-10-03T03:58:32;8.00;99.90
19522;DHT22;9905;52.126;5.596;2022-10-03T04:01:18;8.00;99.90
19522;DHT22;9905;52.126;5.596;2022-10-03T04:03:59;8.00;99.90
19522;DHT22;9905;52.126;5.596;2022-10-03T04:06:46;8.00;99.90
19522;DHT22;9905;52.126;5.596;2022-10-03T04:09:35;8.00;99.90
19522;DHT22;9905;52.126;5.596;2022-10-03T04:12:13;8.00;99.90
19522;DHT22;9905;52.126;5.596;2022-10-03T04:14:59;8.00;99.90
19522;DHT22;9905;52.126;5.596;2022-10-03T04:17:41;8.00;99.90
19522;DHT22;9905;52.126;5.596;2022-10-03T04:20:50;8.00;99.90
19522;DHT22;9905;52.126;5.596;2022-10-03T04:23:32;8.00;99.90
19522;DHT22;9905;52.126;5.596;2022-10-03T04:26:23;8.00;99.90
19522;DHT22;9905;52.126;5.596;2022-10-03T04:29:20;8.00;99.90
19522;DHT22;9905;52.126;5.596;2022-10-03T04:31:58;8.00;99.90
19522;DHT22;9905;52.126;5.596;2022-10-03T04:34:43;8.00;99.90
19522;DHT22;9905;52.126;5.596;2022-10-03T04:37:20;7.90;99.90
19522;DHT22;9905;52.126;5.596;2022-10-03T04:39:55;7.80;99.90
19522;DHT22;9905;52.126;5.596;2022-10-03T04:42:35;7.90;99.90
19522;DHT22;9905;52.126;5.596;2022-10-03T04:45:23;7.80;99.90
19522;DHT22;9905;52.126;5.596;2022-10-03T04:47:58;7.80;99.90
19522;DHT22;9905;52.126;5.596;2022-10-03T04:50:36;7.80;99.90
19522;DHT22;9905;52.126;5.596;2022-10-03T04:53:18;7.80;99.90
19522;DHT22;9905;52.126;5.596;2022-10-03T04:55:49;7.80;99.90
19522;DHT22;9905;52.126;5.596;2022-10-03T04:58:27;7.80;99.90
19522;DHT22;9905;52.126;5.596;2022-10-03T05:01:02;7.70;99.90
19522;DHT22;9905;52.126;5.596;2022-10-03T05:03:41;7.70;99.90
19522;DHT22;9905;52.126;5.596;2022-10-03T05:06:26;7.70;99.90
19522;DHT22;9905;52.126;5.596;2022-10-03T05:09:00;7.60;99.90
19522;DHT22;9905;52.126;5.596;2022-10-03T05:11:42;7.60;99.90
19522;DHT22;9905;52.126;5.596;2022-10-03T05:14:19;7.60;99.90
19522;DHT22;9905;52.126;5.596;2022-10-03T05:16:54;7.60;99.90
19522;DHT22;9905;52.126;5.596;2022-10-03T05:20:00;7.60;99.90
19522;DHT22;9905;52.126;5.596;2022-10-03T05:22:41;7.60;99.90
19522;DHT22;9905;52.126;5.596;2022-10-03T05:25:21;7.60;99.90
19522;DHT22;9905;52.126;5.596;2022-10-03T05:28:00;7.60;99.90
19522;DHT22;9905;52.126;5.596;2022-10-03T05:30:37;7.50;99.90
19522;DHT22;9905;52.126;5.596;2022-10-03T05:33:13;7.60;99.90
19522;DHT22;9905;52.126;5.596;2022-10-03T05:35:49;7.50;99.90
19522;DHT22;9905;52.126;5.596;2022-10-03T05:38:36;7.50;99.90
19522;DHT22;9905;52.126;5.596;2022-10-03T05:41:16;7.50;99.90
19522;DHT22;9905;52.126;5.596;2022-10-03T05:43:48;7.50;99.90
19522;DHT22;9905;52.126;5.596;2022-10-03T05:49:48;7.50;99.90
19522;DHT22;9905;52.126;5.596;2022-10-03T05:52:34;7.60;99.90
19522;DHT22;9905;52.126;5.596;2022-10-03T05:55:33;7.60;99.90
19522;DHT22;9905;52.126;5.596;2022-10-03T05:58:37;7.60;99.90
19522;DHT22;9905;52.126;5.596;2022-10-03T06:01:23;7.50;99.90
19522;DHT22;9905;52.126;5.596;2022-10-03T06:04:02;7.50;99.90
19522;DHT22;9905;52.126;5.596;2022-10-03T06:06:50;7.50;99.90
19522;DHT22;9905;52.126;5.596;2022-10-03T06:09:37;7.50;99.90
19522;DHT22;9905;52.126;5.596;2022-10-03T06:12:08;7.40;99.90
19522;DHT22;9905;52.126;5.596;2022-10-03T06:17:54;7.40;99.90
19522;DHT22;9905;52.126;5.596;2022-10-03T06:21:03;7.40;99.90
19522;DHT22;9905;52.126;5.596;2022-10-03T06:23:52;7.50;99.90
19522;DHT22;9905;52.126;5.596;2022-10-03T06:26:42;7.50;99.90
19522;DHT22;9905;52.126;5.596;2022-10-03T06:35:39;7.70;99.90
19522;DHT22;9905;52.126;5.596;2022-10-03T06:44:39;7.80;99.90
19522;DHT22;9905;52.126;5.596;2022-10-03T06:47:20;7.80;99.90
19522;DHT22;9905;52.126;5.596;2022-10-03T06:50:16;7.90;99.90
19522;DHT22;9905;52.126;5.596;2022-10-03T06:53:00;7.90;99.90
19522;DHT22;9905;52.126;5.596;2022-10-03T06:55:55;8.00;99.90
19522;DHT22;9905;52.126;5.596;2022-10-03T06:58:50;8.00;99.90
19522;DHT22;9905;52.126;5.596;2022-10-03T07:01:53;8.10;99.90
19522;DHT22;9905;52.126;5.596;2022-10-03T07:07:49;8.30;99.90
19522;DHT22;9905;52.126;5.596;2022-10-03T07:10:32;8.30;99.90
19522;DHT22;9905;52.126;5.596;2022-10-03T07:13:34;8.50;99.90
19522;DHT22;9905;52.126;5.596;2022-10-03T07:19:14;8.70;99.90
19522;DHT22;9905;52.126;5.596;2022-10-03T07:22:10;8.90;99.90
19522;DHT22;9905;52.126;5.596;2022-10-03T07:25:08;9.20;99.90
19522;DHT22;9905;52.126;5.596;2022-10-03T07:27:49;9.50;99.90
19522;DHT22;9905;52.126;5.596;2022-10-03T07:30:19;9.60;99.90
19522;DHT22;9905;52.126;5.596;2022-10-03T07:36:20;9.80;99.90
19522;DHT22;9905;52.126;5.596;2022-10-03T07:39:32;9.90;99.90
19522;DHT22;9905;52.126;5.596;2022-10-03T07:45:31;10.10;99.90
19522;DHT22;9905;52.126;5.596;2022-10-03T07:48:28;10.20;99.90
19522;DHT22;9905;52.126;5.596;2022-10-03T07:51:11;10.40;99.90
19522;DHT22;9905;52.126;5.596;2022-10-03T07:53:56;10.50;99.90
19522;DHT22;9905;52.126;5.596;2022-10-03T08:00:03;10.70;99.90
19522;DHT22;9905;52.126;5.596;2022-10-03T08:05:39;11.00;99.90
19522;DHT22;9905;52.126;5.596;2022-10-03T08:11:40;11.40;99.90
19522;DHT22;9905;52.126;5.596;2022-10-03T08:14:16;11.60;99.90
19522;DHT22;9905;52.126;5.596;2022-10-03T08:16:57;11.90;99.90
19522;DHT22;9905;52.126;5.596;2022-10-03T08:19:35;12.00;99.90
19522;DHT22;9905;52.126;5.596;2022-10-03T08:22:12;12.10;99.90
19522;DHT22;9905;52.126;5.596;2022-10-03T08:27:57;12.50;99.90
19522;DHT22;9905;52.126;5.596;2022-10-03T08:30:36;12.60;99.90
19522;DHT22;9905;52.126;5.596;2022-10-03T08:33:35;12.70;99.90
19522;DHT22;9905;52.126;5.596;2022-10-03T08:36:42;12.80;99.90
19522;DHT22;9905;52.126;5.596;2022-10-03T08:39:27;12.90;99.90
19522;DHT22;9905;52.126;5.596;2022-10-03T08:45:40;13.20;99.90
19522;DHT22;9905;52.126;5.596;2022-10-03T08:54:34;13.60;99.90
19522;DHT22;9905;52.126;5.596;2022-10-03T08:57:32;13.80;99.90
19522;DHT22;9905;52.126;5.596;2022-10-03T09:00:13;13.90;99.90
19522;DHT22;9905;52.126;5.596;2022-10-03T09:02:58;14.10;99.90
19522;DHT22;9905;52.126;5.596;2022-10-03T09:08:47;14.30;99.90
19522;DHT22;9905;52.126;5.596;2022-10-03T09:11:36;14.50;99.90
19522;DHT22;9905;52.126;5.596;2022-10-03T09:14:30;14.70;99.90
19522;DHT22;9905;52.126;5.596;2022-10-03T09:17:05;14.80;99.90
19522;DHT22;9905;52.126;5.596;2022-10-03T09:19:59;14.90;99.90
19522;DHT22;9905;52.126;5.596;2022-10-03T09:22:54;15.10;99.90
19522;DHT22;9905;52.126;5.596;2022-10-03T09:25:31;15.30;99.90
19522;DHT22;9905;52.126;5.596;2022-10-03T09:28:25;15.30;99.90
19522;DHT22;9905;52.126;5.596;2022-10-03T09:31:10;15.50;99.90
19522;DHT22;9905;52.126;5.596;2022-10-03T09:34:11;15.60;99.90
19522;DHT22;9905;52.126;5.596;2022-10-03T09:37:16;15.70;99.90
19522;DHT22;9905;52.126;5.596;2022-10-03T09:40:28;15.90;99.90
19522;DHT22;9905;52.126;5.596;2022-10-03T09:43:28;16.00;99.90
19522;DHT22;9905;52.126;5.596;2022-10-03T09:46:42;16.20;99.90
19522;DHT22;9905;52.126;5.596;2022-10-03T09:49:47;16.30;99.90
19522;DHT22;9905;52.126;5.596;2022-10-03T09:52:40;16.40;99.90
19522;DHT22;9905;52.126;5.596;2022-10-03T09:55:32;16.40;99.90
19522;DHT22;9905;52.126;5.596;2022-10-03T09:58:14;16.50;99.90
19522;DHT22;9905;52.126;5.596;2022-10-03T10:01:07;16.60;99.90
19522;DHT22;9905;52.126;5.596;2022-10-03T10:07:51;16.80;99.90
19522;DHT22;9905;52.126;5.596;2022-10-03T10:10:49;16.90;99.90
19522;DHT22;9905;52.126;5.596;2022-10-03T10:13:44;17.10;99.90
19522;DHT22;9905;52.126;5.596;2022-10-03T10:16:36;17.10;99.90
19522;DHT22;9905;52.126;5.596;2022-10-03T10:19:36;17.20;99.90
19522;DHT22;9905;52.126;5.596;2022-10-03T10:25:34;17.30;99.90
19522;DHT22;9905;52.126;5.596;2022-10-03T10:28:31;17.40;99.90
19522;DHT22;9905;52.126;5.596;2022-10-03T10:31:30;17.60;99.90
19522;DHT22;9905;52.126;5.596;2022-10-03T10:34:33;17.60;99.90
19522;DHT22;9905;52.126;5.596;2022-10-03T10:37:40;17.70;99.90
19522;DHT22;9905;52.126;5.596;2022-10-03T10:43:40;17.80;99.90
19522;DHT22;9905;52.126;5.596;2022-10-03T10:52:50;17.90;99.90
19522;DHT22;9905;52.126;5.596;2022-10-03T10:56:04;17.90;99.90
19522;DHT22;9905;52.126;5.596;2022-10-03T10:59:13;18.00;99.90
19522;DHT22;9905;52.126;5.596;2022-10-03T11:02:12;18.10;99.90
19522;DHT22;9905;52.126;5.596;2022-10-03T11:11:48;18.30;99.90
19522;DHT22;9905;52.126;5.596;2022-10-03T11:17:58;18.40;99.90
19522;DHT22;9905;52.126;5.596;2022-10-03T11:24:15;18.50;99.90
19522;DHT22;9905;52.126;5.596;2022-10-03T11:33:26;18.60;99.90
19522;DHT22;9905;52.126;5.596;2022-10-03T11:39:12;18.80;99.90
19522;DHT22;9905;52.126;5.596;2022-10-03T11:41:46;18.80;99.90
19522;DHT22;9905;52.126;5.596;2022-10-03T11:44:23;18.80;99.90
19522;DHT22;9905;52.126;5.596;2022-10-03T11:47:14;18.80;99.90
19522;DHT22;9905;52.126;5.596;2022-10-03T11:50:20;18.80;99.90
19522;DHT22;9905;52.126;5.596;2022-10-03T11:53:11;18.80;99.90
19522;DHT22;9905;52.126;5.596;2022-10-03T11:55:44;18.80;99.90
19522;DHT22;9905;52.126;5.596;2022-10-03T11:58:37;18.90;99.90
19522;DHT22;9905;52.126;5.596;2022-10-03T12:01:19;18.80;99.90
19522;DHT22;9905;52.126;5.596;2022-10-03T12:03:53;18.80;99.90
19522;DHT22;9905;52.126;5.596;2022-10-03T12:06:38;18.80;99.90
19522;DHT22;9905;52.126;5.596;2022-10-03T12:09:39;18.90;99.90
19522;DHT22;9905;52.126;5.596;2022-10-03T12:12:14;18.90;99.90
19522;DHT22;9905;52.126;5.596;2022-10-03T12:14:46;18.90;99.90
19522;DHT22;9905;52.126;5.596;2022-10-03T12:17:15;18.90;99.90
19522;DHT22;9905;52.126;5.596;2022-10-03T12:19:52;18.90;99.90
19522;DHT22;9905;52.126;5.596;2022-10-03T12:22:33;18.80;99.90
19522;DHT22;9905;52.126;5.596;2022-10-03T12:25:06;18.80;99.90
19522;DHT22;9905;52.126;5.596;2022-10-03T12:27:48;18.90;99.90
19522;DHT22;9905;52.126;5.596;2022-10-03T12:30:17;18.90;99.90
19522;DHT22;9905;52.126;5.596;2022-10-03T12:32:54;18.90;99.90
19522;DHT22;9905;52.126;5.596;2022-10-03T12:35:37;19.00;99.90
19522;DHT22;9905;52.126;5.596;2022-10-03T12:38:20;19.00;99.90
19522;DHT22;9905;52.126;5.596;2022-10-03T12:40:55;19.10;99.90
19522;DHT22;9905;52.126;5.596;2022-10-03T12:43:36;19.10;99.90
19522;DHT22;9905;52.126;5.596;2022-10-03T12:46:11;19.10;99.90
19522;DHT22;9905;52.126;5.596;2022-10-03T12:48:44;19.10;99.90
19522;DHT22;9905;52.126;5.596;2022-10-03T12:51:33;19.10;99.90
19522;DHT22;9905;52.126;5.596;2022-10-03T12:54:15;19.00;99.90
19522;DHT22;9905;52.126;5.596;2022-10-03T12:56:48;19.10;99.90
19522;DHT22;9905;52.126;5.596;2022-10-03T12:59:24;19.20;99.90
19522;DHT22;9905;52.126;5.596;2022-10-03T13:05:18;19.20;99.90
19522;DHT22;9905;52.126;5.596;2022-10-03T13:07:51;19.30;99.90
19522;DHT22;9905;52.126;5.596;2022-10-03T13:10:30;19.30;99.90
19522;DHT22;9905;52.126;5.596;2022-10-03T13:13:09;19.40;99.90
19522;DHT22;9905;52.126;5.596;2022-10-03T13:15:50;19.50;99.90
19522;DHT22;9905;52.126;5.596;2022-10-03T13:18:41;19.50;99.90
19522;DHT22;9905;52.126;5.596;2022-10-03T13:21:12;19.60;99.90
19522;DHT22;9905;52.126;5.596;2022-10-03T13:23:44;19.60;99.90
19522;DHT22;9905;52.126;5.596;2022-10-03T13:26:19;19.50;99.90
19522;DHT22;9905;52.126;5.596;2022-10-03T13:29:11;19.50;99.90
19522;DHT22;9905;52.126;5.596;2022-10-03T13:31:52;19.50;99.90
19522;DHT22;9905;52.126;5.596;2022-10-03T13:34:23;19.50;99.90
19522;DHT22;9905;52.126;5.596;2022-10-03T13:36:54;19.50;99.90
19522;DHT22;9905;52.126;5.596;2022-10-03T13:39:24;19.50;99.90
19522;DHT22;9905;52.126;5.596;2022-10-03T13:42:03;19.50;99.90
19522;DHT22;9905;52.126;5.596;2022-10-03T13:44:37;19.40;99.90
19522;DHT22;9905;52.126;5.596;2022-10-03T13:47:15;19.30;99.90
19522;DHT22;9905;52.126;5.596;2022-10-03T13:49:50;19.40;99.90
19522;DHT22;9905;52.126;5.596;2022-10-03T13:52:22;19.50;99.90
19522;DHT22;9905;52.126;5.596;2022-10-03T13:55:07;19.60;99.90
19522;DHT22;9905;52.126;5.596;2022-10-03T13:57:41;19.60;99.90
19522;DHT22;9905;52.126;5.596;2022-10-03T14:00:11;19.60;99.90
19522;DHT22;9905;52.126;5.596;2022-10-03T14:02:47;19.60;99.90
19522;DHT22;9905;52.126;5.596;2022-10-03T14:05:32;19.50;99.90
19522;DHT22;9905;52.126;5.596;2022-10-03T14:08:08;19.40;99.90
19522;DHT22;9905;52.126;5.596;2022-10-03T14:10:54;19.40;99.90
19522;DHT22;9905;52.126;5.596;2022-10-03T14:13:32;19.30;99.90
19522;DHT22;9905;52.126;5.596;2022-10-03T14:16:09;19.20;99.90
19522;DHT22;9905;52.126;5.596;2022-10-03T14:18:44;19.10;99.90
19522;DHT22;9905;52.126;5.596;2022-10-03T14:21:30;19.10;99.90
19522;DHT22;9905;52.126;5.596;2022-10-03T14:24:05;19.00;99.90
19522;DHT22;9905;52.126;5.596;2022-10-03T14:26:40;19.00;99.90
19522;DHT22;9905;52.126;5.596;2022-10-03T14:29:18;18.90;99.90
19522;DHT22;9905;52.126;5.596;2022-10-03T14:31:55;18.90;99.90
19522;DHT22;9905;52.126;5.596;2022-10-03T14:34:39;18.70;99.90
19522;DHT22;9905;52.126;5.596;2022-10-03T14:37:16;18.70;99.90
19522;DHT22;9905;52.126;5.596;2022-10-03T14:39:51;18.70;99.90
19522;DHT22;9905;52.126;5.596;2022-10-03T14:42:43;18.60;99.90
19522;DHT22;9905;52.126;5.596;2022-10-03T14:45:16;18.40;99.90
19522;DHT22;9905;52.126;5.596;2022-10-03T14:47:48;18.30;99.90
19522;DHT22;9905;52.126;5.596;2022-10-03T14:50:20;18.10;99.90
19522;DHT22;9905;52.126;5.596;2022-10-03T14:52:51;18.00;99.90
19522;DHT22;9905;52.126;5.596;2022-10-03T14:55:29;17.90;99.90
19522;DHT22;9905;52.126;5.596;2022-10-03T14:58:00;17.80;99.90
19522;DHT22;9905;52.126;5.596;2022-10-03T15:00:37;17.80;99.90
19522;DHT22;9905;52.126;5.596;2022-10-03T15:03:23;17.60;99.90
19522;DHT22;9905;52.126;5.596;2022-10-03T15:06:03;17.60;99.90
19522;DHT22;9905;52.126;5.596;2022-10-03T15:08:45;17.60;99.90
19522;DHT22;9905;52.126;5.596;2022-10-03T15:11:15;17.50;99.90
19522;DHT22;9905;52.126;5.596;2022-10-03T15:13:45;17.50;99.90
19522;DHT22;9905;52.126;5.596;2022-10-03T15:16:17;17.60;99.90
19522;DHT22;9905;52.126;5.596;2022-10-03T15:18:50;17.60;99.90
19522;DHT22;9905;52.126;5.596;2022-10-03T15:21:18;17.60;99.90
19522;DHT22;9905;52.126;5.596;2022-10-03T15:23:57;17.70;99.90
19522;DHT22;9905;52.126;5.596;2022-10-03T15:26:28;17.70;99.90
19522;DHT22;9905;52.126;5.596;2022-10-03T15:28:59;17.80;99.90
19522;DHT22;9905;52.126;5.596;2022-10-03T15:31:34;17.70;99.90
19522;DHT22;9905;52.126;5.596;2022-10-03T15:34:04;17.70;99.90
19522;DHT22;9905;52.126;5.596;2022-10-03T15:36:35;17.70;99.90
19522;DHT22;9905;52.126;5.596;2022-10-03T15:39:05;17.70;99.90
19522;DHT22;9905;52.126;5.596;2022-10-03T15:41:35;17.70;99.90
19522;DHT22;9905;52.126;5.596;2022-10-03T15:44:12;17.60;99.90
19522;DHT22;9905;52.126;5.596;2022-10-03T15:46:44;17.60;99.90
19522;DHT22;9905;52.126;5.596;2022-10-03T15:49:18;17.50;99.90
19522;DHT22;9905;52.126;5.596;2022-10-03T15:51:47;17.60;99.90
19522;DHT22;9905;52.126;5.596;2022-10-03T15:54:17;17.50;99.90
19522;DHT22;9905;52.126;5.596;2022-10-03T15:56:50;17.50;99.90
19522;DHT22;9905;52.126;5.596;2022-10-03T15:59:20;17.50;99.90
19522;DHT22;9905;52.126;5.596;2022-10-03T16:01:51;17.50;99.90
19522;DHT22;9905;52.126;5.596;2022-10-03T16:04:22;17.40;99.90
19522;DHT22;9905;52.126;5.596;2022-10-03T16:06:54;17.40;99.90
19522;DHT22;9905;52.126;5.596;2022-10-03T16:09:26;17.40;99.90
19522;DHT22;9905;52.126;5.596;2022-10-03T16:12:05;17.40;99.90
19522;DHT22;9905;52.126;5.596;2022-10-03T16:14:39;17.40;99.90
19522;DHT22;9905;52.126;5.596;2022-10-03T16:17:14;17.40;99.90
19522;DHT22;9905;52.126;5.596;2022-10-03T16:19:49;17.40;99.90
19522;DHT22;9905;52.126;5.596;2022-10-03T16:22:21;17.40;99.90
19522;DHT22;9905;52.126;5.596;2022-10-03T16:25:01;17.50;99.90
19522;DHT22;9905;52.126;5.596;2022-10-03T16:27:31;17.40;99.90
19522;DHT22;9905;52.126;5.596;2022-10-03T16:30:13;17.40;99.90
19522;DHT22;9905;52.126;5.596;2022-10-03T16:32:48;17.40;99.90
19522;DHT22;9905;52.126;5.596;2022-10-03T16:35:27;17.40;99.90
19522;DHT22;9905;52.126;5.596;2022-10-03T16:37:55;17.20;99.90
19522;DHT22;9905;52.126;5.596;2022-10-03T16:40:23;17.20;99.90
19522;DHT22;9905;52.126;5.596;2022-10-03T16:42:55;17.10;99.90
19522;DHT22;9905;52.126;5.596;2022-10-03T16:45:26;17.10;99.90
19522;DHT22;9905;52.126;5.596;2022-10-03T16:47:57;17.00;99.90
19522;DHT22;9905;52.126;5.596;2022-10-03T16:50:46;16.90;99.90
19522;DHT22;9905;52.126;5.596;2022-10-03T16:53:15;16.80;99.90
19522;DHT22;9905;52.126;5.596;2022-10-03T16:55:45;16.80;99.90
19522;DHT22;9905;52.126;5.596;2022-10-03T16:58:18;16.70;99.90
19522;DHT22;9905;52.126;5.596;2022-10-03T17:00:51;16.60;99.90
19522;DHT22;9905;52.126;5.596;2022-10-03T17:03:24;16.50;99.90
19522;DHT22;9905;52.126;5.596;2022-10-03T17:05:53;16.50;99.90
19522;DHT22;9905;52.126;5.596;2022-10-03T17:08:26;16.50;99.90
19522;DHT22;9905;52.126;5.596;2022-10-03T17:10:57;16.40;99.90
19522;DHT22;9905;52.126;5.596;2022-10-03T17:13:36;16.30;99.90
19522;DHT22;9905;52.126;5.596;2022-10-03T17:16:11;16.20;99.90
19522;DHT22;9905;52.126;5.596;2022-10-03T17:18:42;16.20;99.90
19522;DHT22;9905;52.126;5.596;2022-10-03T17:21:18;16.10;99.90
19522;DHT22;9905;52.126;5.596;2022-10-03T17:23:54;16.10;99.90
19522;DHT22;9905;52.126;5.596;2022-10-03T17:26:24;16.00;99.90
19522;DHT22;9905;52.126;5.596;2022-10-03T17:28:56;15.90;99.90
19522;DHT22;9905;52.126;5.596;2022-10-03T17:31:31;15.80;99.90
19522;DHT22;9905;52.126;5.596;2022-10-03T17:34:07;15.70;99.90
19522;DHT22;9905;52.126;5.596;2022-10-03T17:39:53;15.70;99.90
19522;DHT22;9905;52.126;5.596;2022-10-03T17:42:28;15.60;99.90
19522;DHT22;9905;52.126;5.596;2022-10-03T17:45:01;15.60;99.90
19522;DHT22;9905;52.126;5.596;2022-10-03T17:47:34;15.40;99.90
19522;DHT22;9905;52.126;5.596;2022-10-03T17:50:12;15.30;99.90
19522;DHT22;9905;52.126;5.596;2022-10-03T17:52:43;15.20;99.90
19522;DHT22;9905;52.126;5.596;2022-10-03T17:55:15;15.10;99.90
19522;DHT22;9905;52.126;5.596;2022-10-03T17:57:46;15.10;99.90
19522;DHT22;9905;52.126;5.596;2022-10-03T18:00:21;15.00;99.90
19522;DHT22;9905;52.126;5.596;2022-10-03T18:02:54;14.90;99.90
19522;DHT22;9905;52.126;5.596;2022-10-03T18:05:28;14.90;99.90
19522;DHT22;9905;52.126;5.596;2022-10-03T18:08:00;14.90;99.90
19522;DHT22;9905;52.126;5.596;2022-10-03T18:10:31;14.80;99.90
19522;DHT22;9905;52.126;5.596;2022-10-03T18:13:01;14.70;99.90
19522;DHT22;9905;52.126;5.596;2022-10-03T18:15:38;14.60;99.90
19522;DHT22;9905;52.126;5.596;2022-10-03T18:18:33;14.60;99.90
19522;DHT22;9905;52.126;5.596;2022-10-03T18:21:12;14.50;99.90
19522;DHT22;9905;52.126;5.596;2022-10-03T18:23:49;14.40;99.90
19522;DHT22;9905;52.126;5.596;2022-10-03T18:26:24;14.40;99.90
19522;DHT22;9905;52.126;5.596;2022-10-03T18:28:59;14.30;99.90
19522;DHT22;9905;52.126;5.596;2022-10-03T18:31:37;14.20;99.90
19522;DHT22;9905;52.126;5.596;2022-10-03T18:34:07;14.10;99.90
19522;DHT22;9905;52.126;5.596;2022-10-03T18:36:41;14.10;99.90
19522;DHT22;9905;52.126;5.596;2022-10-03T18:39:14;14.00;99.90
19522;DHT22;9905;52.126;5.596;2022-10-03T18:41:42;13.90;99.90
19522;DHT22;9905;52.126;5.596;2022-10-03T18:44:12;13.90;99.90
19522;DHT22;9905;52.126;5.596;2022-10-03T18:46:42;13.90;99.90
19522;DHT22;9905;52.126;5.596;2022-10-03T18:49:16;13.90;99.90
19522;DHT22;9905;52.126;5.596;2022-10-03T18:51:51;13.80;99.90
19522;DHT22;9905;52.126;5.596;2022-10-03T18:54:25;13.80;99.90
19522;DHT22;9905;52.126;5.596;2022-10-03T18:57:03;13.80;99.90
19522;DHT22;9905;52.126;5.596;2022-10-03T18:59:37;13.80;99.90
19522;DHT22;9905;52.126;5.596;2022-10-03T19:02:15;13.80;99.90
19522;DHT22;9905;52.126;5.596;2022-10-03T19:04:48;13.80;99.90
19522;DHT22;9905;52.126;5.596;2022-10-03T19:07:19;13.80;99.90
19522;DHT22;9905;52.126;5.596;2022-10-03T19:10:19;13.80;99.90
19522;DHT22;9905;52.126;5.596;2022-10-03T19:12:52;13.70;99.90
19522;DHT22;9905;52.126;5.596;2022-10-03T19:15:27;13.70;99.90
19522;DHT22;9905;52.126;5.596;2022-10-03T19:18:07;13.60;99.90
19522;DHT22;9905;52.126;5.596;2022-10-03T19:20:37;13.60;99.90
19522;DHT22;9905;52.126;5.596;2022-10-03T19:23:09;13.60;99.90
19522;DHT22;9905;52.126;5.596;2022-10-03T19:25:38;13.60;99.90
19522;DHT22;9905;52.126;5.596;2022-10-03T19:28:13;13.60;99.90
19522;DHT22;9905;52.126;5.596;2022-10-03T19:30:43;13.60;99.90